CheckWX is a tool to help pilots better visualize weather data.  It is not intended as a substitute for an official pre-flight weather briefing.

00:24:55 UTC

KMDW TAF
Chicago Midway International Airport
Chicago, Illinois, USA
KMDW 202337Z 2100/2206 01011KT P6SM SKC FM210200 03004KT P6SM SKC FM210600 20003KT P6SM SKC FM211400 19011KT P6SM SCT200

Apr-21@
00:00 UTC

Apr-21 @ 00:00 UTC

Apr-21@
02:00 UTC

Apr-21 @ 02:00 UTC

KMDW 202337Z 2100/2206 01011KT P6SM SKC
Wind
  • 010° at 11 KTS
Cloud Levels
  • Clear skies

Apr-21@
02:00 UTC

Apr-21 @ 02:00 UTC

Apr-21@
06:00 UTC

Apr-21 @ 06:00 UTC

FM210200 03004KT P6SM SKC

From

From Standard forecast or significant change

Wind
  • 030° at 4 KTS
Cloud Levels
  • Clear skies

Apr-21@
06:00 UTC

Apr-21 @ 06:00 UTC

Apr-21@
14:00 UTC

Apr-21 @ 14:00 UTC

FM210600 20003KT P6SM SKC

From

From Standard forecast or significant change

Wind
  • 200° at 3 KTS
Cloud Levels
  • Clear skies

Apr-21@
14:00 UTC

Apr-21 @ 14:00 UTC

Apr-22@
06:00 UTC

Apr-22 @ 06:00 UTC

FM211400 19011KT P6SM SCT200

From

From Standard forecast or significant change

Wind
  • 190° at 11 KTS
Cloud Levels
  • Scattered at 20,000' AGL